Time;durP1;ratioP1;P1;durP2;ratioP2;P2;SDS_P1;SDS_P2;PMS_P1;PMS_P2;Temp;Humidity;BMP_temperature;BMP_pressure;BME280_temperature;BME280_humidity;BME280_pressure;Samples;Min_cycle;Max_cycle;Signal;HPM_P1;HPM_P2
2022/10/01 00:00:15;;;;;;;6.37;5.77;;;16.30;56.00;;;;;;5044966;28;20435;-51
2022/10/01 00:02:41;;;;;;;6.30;5.53;;;16.40;56.10;;;;;;5041061;28;20215;-50
2022/10/01 00:05:10;;;;;;;5.83;5.33;;;16.50;55.90;;;;;;5039160;28;20306;-46
2022/10/01 00:07:43;;;;;;;7.23;6.53;;;16.40;56.30;;;;;;5045058;28;20497;-47
2022/10/01 00:10:11;;;;;;;7.27;6.57;;;16.50;56.10;;;;;;5038806;28;20439;-46
2022/10/01 00:12:43;;;;;;;6.53;5.83;;;16.70;55.40;;;;;;5046182;28;20497;-47
2022/10/01 00:15:09;;;;;;;6.90;6.20;;;16.70;55.80;;;;;;5044814;28;20451;-50
2022/10/01 00:17:35;;;;;;;6.17;5.57;;;16.70;55.40;;;;;;5043181;28;20446;-48
2022/10/01 00:20:02;;;;;;;6.97;6.30;;;16.70;55.20;;;;;;5042737;28;21171;-48
2022/10/01 00:22:35;;;;;;;8.10;6.20;;;16.60;55.60;;;;;;5044289;28;20488;-49
2022/10/01 00:25:01;;;;;;;7.33;5.40;;;16.60;55.70;;;;;;5045226;28;20564;-47
2022/10/01 00:27:27;;;;;;;5.93;5.30;;;16.60;55.40;;;;;;5041169;28;20458;-51
2022/10/01 00:29:53;;;;;;;6.53;5.60;;;16.40;56.30;;;;;;5047254;28;20470;-50
2022/10/01 00:32:19;;;;;;;6.50;6.00;;;16.10;56.90;;;;;;5047799;28;20447;-49
2022/10/01 00:34:45;;;;;;;5.07;4.67;;;16.20;57.20;;;;;;5047147;28;20185;-51
2022/10/01 00:37:11;;;;;;;5.83;5.20;;;16.30;57.40;;;;;;5043711;28;20473;-50
2022/10/01 00:39:37;;;;;;;5.20;4.80;;;16.10;58.10;;;;;;5044920;28;20224;-50
2022/10/01 00:42:24;;;;;;;8.03;5.40;;;16.20;57.60;;;;;;5040485;28;20219;-51
2022/10/01 00:44:50;;;;;;;6.57;4.20;;;16.40;57.40;;;;;;5040750;28;20494;-46
2022/10/01 00:47:33;;;;;;;5.37;4.87;;;16.40;57.20;;;;;;5037626;28;20458;-47
2022/10/01 00:50:32;;;;;;;5.33;4.83;;;16.40;56.80;;;;;;5048137;28;20192;-51
2022/10/01 00:53:05;;;;;;;5.37;4.87;;;16.20;57.30;;;;;;5045569;28;20462;-47
2022/10/01 00:55:36;;;;;;;5.50;5.00;;;16.20;57.90;;;;;;5043350;28;20443;-50
2022/10/01 00:58:07;;;;;;;4.90;4.50;;;16.20;57.50;;;;;;5042324;28;20449;-50
2022/10/01 01:00:34;;;;;;;5.60;5.03;;;16.30;57.90;;;;;;5036715;28;20604;-49
2022/10/01 01:02:59;;;;;;;7.10;5.83;;;16.40;57.50;;;;;;5042262;28;20443;-48
2022/10/01 01:05:25;;;;;;;4.90;4.50;;;16.20;58.00;;;;;;5046808;28;20624;-50
2022/10/01 01:07:52;;;;;;;4.47;4.07;;;16.40;58.00;;;;;;5037004;28;20185;-49
2022/10/01 01:10:36;;;;;;;9.03;4.60;;;16.50;57.60;;;;;;5040323;28;20201;-49
2022/10/01 01:13:21;;;;;;;5.20;4.70;;;16.50;57.10;;;;;;5045424;28;20439;-50
2022/10/01 01:16:14;;;;;;;4.87;4.47;;;16.50;57.50;;;;;;5037497;28;20525;-48
2022/10/01 01:19:01;;;;;;;4.83;4.30;;;16.50;57.20;;;;;;5044993;28;20538;-49
2022/10/01 01:21:34;;;;;;;4.63;4.27;;;16.70;56.90;;;;;;5038074;28;20450;-51
2022/10/01 01:24:22;;;;;;;4.80;4.40;;;16.70;56.50;;;;;;5044458;28;20571;-50
2022/10/01 01:27:01;;;;;;;4.63;4.30;;;16.90;56.20;;;;;;5043212;28;20933;-48
2022/10/01 01:29:48;;;;;;;5.00;4.60;;;17.00;55.90;;;;;;5046861;28;20479;-47
2022/10/01 01:32:20;;;;;;;7.20;5.03;;;17.00;55.30;;;;;;5050861;28;20451;-50
2022/10/01 01:34:50;;;;;;;5.63;5.03;;;17.10;54.90;;;;;;5035124;28;20451;-48
2022/10/01 01:37:20;;;;;;;5.73;4.83;;;17.00;54.60;;;;;;5039765;28;20946;-47
2022/10/01 01:39:49;;;;;;;6.27;4.80;;;17.00;55.30;;;;;;5044200;28;20937;-50
2022/10/01 01:42:21;;;;;;;5.37;4.77;;;17.00;54.70;;;;;;5040533;28;20438;-51
2022/10/01 01:44:50;;;;;;;5.10;4.60;;;17.00;54.60;;;;;;5039456;28;20948;-47
2022/10/01 01:47:21;;;;;;;4.87;4.47;;;17.00;54.60;;;;;;5042215;28;22598;-48
2022/10/01 01:49:49;;;;;;;4.77;4.27;;;17.00;55.10;;;;;;5040798;28;20504;-51
2022/10/01 01:52:16;;;;;;;4.60;4.20;;;16.90;55.70;;;;;;5041338;28;20447;-48
2022/10/01 01:54:48;;;;;;;4.00;3.70;;;16.90;56.10;;;;;;5040157;28;20455;-47
2022/10/01 01:57:15;;;;;;;4.83;4.43;;;16.90;55.70;;;;;;5043955;28;20458;-51
2022/10/01 01:59:41;;;;;;;5.00;4.60;;;16.80;56.80;;;;;;5041285;28;20443;-48
2022/10/01 02:02:13;;;;;;;4.23;3.80;;;16.50;56.60;;;;;;5029954;28;20504;-48
2022/10/01 02:04:53;;;;;;;4.57;4.17;;;16.50;56.50;;;;;;5042656;28;20228;-48
2022/10/01 02:07:30;;;;;;;4.30;3.90;;;16.40;56.80;;;;;;5044061;28;20445;-48
2022/10/01 02:10:10;;;;;;;4.67;4.10;;;16.50;57.00;;;;;;5047079;28;21484;-47
2022/10/01 02:13:07;;;;;;;4.33;3.37;;;16.50;56.70;;;;;;5042775;28;20488;-50
2022/10/01 02:16:19;;;;;;;4.90;4.40;;;16.70;56.20;;;;;;5045932;28;20457;-48
2022/10/01 02:19:08;;;;;;;4.63;4.23;;;16.60;55.80;;;;;;5041475;28;20808;-48
2022/10/01 02:21:40;;;;;;;5.40;4.60;;;16.70;56.00;;;;;;5026616;28;20455;-48
2022/10/01 02:24:29;;;;;;;4.10;3.80;;;16.80;55.80;;;;;;5040590;28;21187;-48
2022/10/01 02:26:56;;;;;;;4.33;4.03;;;16.90;55.80;;;;;;5045539;28;20442;-56
2022/10/01 02:29:23;;;;;;;6.00;4.43;;;17.00;55.40;;;;;;5043677;28;20509;-48
2022/10/01 02:31:52;;;;;;;3.70;3.40;;;17.00;54.90;;;;;;5043655;28;20521;-49
2022/10/01 02:34:21;;;;;;;5.27;3.93;;;17.10;54.80;;;;;;5042612;28;20466;-48
2022/10/01 02:36:48;;;;;;;4.50;4.10;;;17.20;54.60;;;;;;5050005;28;20435;-47
2022/10/01 02:39:16;;;;;;;5.63;5.13;;;17.20;54.20;;;;;;5044000;28;20447;-47
2022/10/01 02:41:43;;;;;;;6.60;4.83;;;17.20;54.00;;;;;;5041281;28;20443;-47
2022/10/01 02:44:16;;;;;;;5.40;4.90;;;17.20;54.00;;;;;;5042532;28;20491;-47
2022/10/01 02:46:50;;;;;;;6.20;4.80;;;17.20;54.00;;;;;;5044765;28;20447;-47
2022/10/01 02:49:16;;;;;;;3.93;3.63;;;17.10;53.90;;;;;;5044052;28;20447;-49
2022/10/01 02:51:53;;;;;;;5.07;3.90;;;17.10;54.10;;;;;;5039670;28;20443;-49
2022/10/01 02:54:50;;;;;;;4.97;4.20;;;17.10;54.10;;;;;;5042558;28;20647;-50
2022/10/01 02:57:23;;;;;;;4.30;4.00;;;17.00;54.10;;;;;;5040311;28;20458;-49
2022/10/01 02:59:57;;;;;;;5.73;3.87;;;17.00;54.20;;;;;;5040882;28;20501;-48
2022/10/01 03:02:26;;;;;;;4.23;3.83;;;16.90;54.30;;;;;;5042891;28;20508;-46
2022/10/01 03:04:53;;;;;;;4.47;4.07;;;16.90;54.30;;;;;;5045655;28;20858;-49
2022/10/01 03:07:19;;;;;;;5.70;4.00;;;17.00;54.30;;;;;;5024705;28;20838;-52
2022/10/01 03:09:45;;;;;;;4.23;3.83;;;16.90;54.40;;;;;;5043736;28;20447;-49
2022/10/01 03:12:10;;;;;;;4.50;4.10;;;17.00;54.40;;;;;;5044629;28;20791;-48
2022/10/01 03:14:38;;;;;;;3.40;3.20;;;17.00;54.20;;;;;;5042890;28;20220;-48
2022/10/01 03:17:05;;;;;;;3.90;3.60;;;17.00;54.90;;;;;;5047037;28;20200;-48
2022/10/01 03:19:31;;;;;;;4.23;3.80;;;17.10;54.70;;;;;;5045199;28;20791;-49
2022/10/01 03:21:56;;;;;;;4.03;3.63;;;17.20;54.30;;;;;;5039337;28;20438;-48
2022/10/01 03:24:22;;;;;;;5.50;3.73;;;17.20;53.90;;;;;;5044172;28;20689;-48
2022/10/01 03:26:48;;;;;;;5.10;3.50;;;17.20;54.10;;;;;;5043335;28;20220;-48
2022/10/01 03:29:14;;;;;;;3.13;2.93;;;17.20;53.90;;;;;;5038563;28;20237;-48
2022/10/01 03:31:39;;;;;;;3.43;3.13;;;17.10;54.20;;;;;;5047630;28;20555;-48
2022/10/01 03:34:05;;;;;;;5.60;3.50;;;17.10;54.50;;;;;;5045294;28;20439;-48
2022/10/01 03:36:31;;;;;;;4.03;3.63;;;17.10;54.10;;;;;;5043278;28;20198;-48
2022/10/01 03:38:56;;;;;;;3.37;3.07;;;17.00;54.70;;;;;;5043128;28;20543;-53
2022/10/01 03:41:22;;;;;;;3.77;2.90;;;16.70;54.90;;;;;;5041184;28;20216;-49
2022/10/01 03:43:47;;;;;;;6.80;3.30;;;16.40;55.40;;;;;;5037892;28;20619;-52
2022/10/01 03:46:13;;;;;;;3.40;3.10;;;16.60;55.40;;;;;;5041962;28;20200;-52
2022/10/01 03:48:39;;;;;;;2.80;2.60;;;16.70;54.60;;;;;;5041619;28;20226;-51
2022/10/01 03:51:05;;;;;;;3.20;2.90;;;16.30;55.30;;;;;;5038858;28;20203;-52
2022/10/01 03:53:30;;;;;;;5.03;2.60;;;16.00;55.40;;;;;;5045733;28;20271;-50
2022/10/01 03:55:59;;;;;;;3.13;2.77;;;16.20;55.90;;;;;;5047899;28;20277;-48
2022/10/01 03:58:25;;;;;;;3.00;2.67;;;16.30;54.70;;;;;;5042911;28;21846;-52
2022/10/01 04:00:54;;;;;;;3.17;2.87;;;16.40;54.90;;;;;;5042454;28;20451;-49
2022/10/01 04:03:20;;;;;;;3.10;2.80;;;16.20;54.80;;;;;;5048903;28;20516;-52
2022/10/01 04:05:46;;;;;;;3.50;2.60;;;16.30;54.80;;;;;;5039382;28;20439;-52
2022/10/01 04:08:12;;;;;;;3.93;3.57;;;16.40;55.10;;;;;;5039408;28;20507;-51
2022/10/01 04:10:38;;;;;;;3.77;2.67;;;16.60;54.70;;;;;;5044869;28;20303;-51
2022/10/01 04:13:05;;;;;;;3.03;2.77;;;16.70;54.50;;;;;;5039677;28;20802;-51
2022/10/01 04:15:34;;;;;;;2.87;2.57;;;16.60;54.40;;;;;;5041094;28;20477;-49
2022/10/01 04:18:02;;;;;;;3.43;2.70;;;16.60;53.90;;;;;;5041851;28;21060;-48
2022/10/01 04:20:28;;;;;;;3.07;2.77;;;16.60;53.60;;;;;;5038725;28;20443;-49
2022/10/01 04:22:53;;;;;;;2.67;2.47;;;16.60;54.50;;;;;;5041798;28;20442;-48
2022/10/01 04:25:19;;;;;;;2.40;2.20;;;16.60;54.40;;;;;;5045601;28;20248;-52
2022/10/01 04:27:58;;;;;;;2.63;2.43;;;16.70;53.90;;;;;;5045179;28;20219;-50
2022/10/01 04:30:27;;;;;;;2.80;2.53;;;16.50;53.90;;;;;;5050531;28;20754;-47
2022/10/01 04:32:53;;;;;;;3.00;2.80;;;16.60;54.10;;;;;;5040473;28;20472;-48
2022/10/01 04:35:19;;;;;;;5.13;2.03;;;16.40;53.60;;;;;;5040689;28;20509;-52
2022/10/01 04:37:44;;;;;;;2.77;2.57;;;16.40;54.30;;;;;;5042583;28;20268;-50
2022/10/01 04:40:10;;;;;;;3.00;2.70;;;16.50;53.80;;;;;;5046531;28;20283;-52
2022/10/01 04:42:41;;;;;;;2.80;2.60;;;16.50;54.00;;;;;;5041616;28;20243;-53
2022/10/01 04:45:08;;;;;;;2.00;1.90;;;16.70;54.90;;;;;;5044594;28;20288;-49
2022/10/01 04:47:33;;;;;;;2.53;2.33;;;16.60;53.80;;;;;;5041444;28;20461;-52
2022/10/01 04:49:59;;;;;;;2.57;2.37;;;16.70;53.90;;;;;;5042658;28;20451;-48
2022/10/01 04:52:25;;;;;;;2.47;2.27;;;16.90;53.40;;;;;;5044213;28;20195;-48
2022/10/01 04:54:51;;;;;;;2.63;2.43;;;17.00;52.80;;;;;;5046039;28;20193;-48
2022/10/01 04:57:20;;;;;;;3.53;2.17;;;17.00;52.20;;;;;;5045679;28;20477;-52
2022/10/01 04:59:46;;;;;;;3.27;2.97;;;17.00;52.60;;;;;;5043133;28;20443;-48
2022/10/01 05:02:12;;;;;;;6.83;3.37;;;16.70;53.10;;;;;;5044823;28;20446;-47
2022/10/01 05:04:38;;;;;;;5.20;3.43;;;16.30;54.20;;;;;;5047287;28;20868;-48
2022/10/01 05:07:04;;;;;;;3.17;2.90;;;16.30;54.50;;;;;;5040127;28;20444;-48
2022/10/01 05:09:29;;;;;;;3.13;2.80;;;16.40;53.90;;;;;;5042360;28;20208;-48
2022/10/01 05:11:55;;;;;;;4.43;4.03;;;16.30;54.10;;;;;;5043540;28;20435;-48
2022/10/01 05:14:20;;;;;;;4.97;3.57;;;15.80;54.50;;;;;;5041597;28;20242;-49
2022/10/01 05:16:46;;;;;;;3.33;2.70;;;15.50;56.20;;;;;;5037789;28;20195;-47
2022/10/01 05:19:13;;;;;;;3.10;2.50;;;15.80;57.10;;;;;;5041054;28;20200;-51
2022/10/01 05:21:38;;;;;;;2.23;2.03;;;15.90;56.00;;;;;;5042578;28;20255;-50
2022/10/01 05:24:04;;;;;;;2.40;2.20;;;16.10;55.30;;;;;;5036077;28;20486;-48
2022/10/01 05:26:30;;;;;;;2.40;2.20;;;16.30;55.70;;;;;;5044746;28;20599;-48
2022/10/01 05:28:58;;;;;;;3.40;1.97;;;16.30;54.20;;;;;;5042616;28;20327;-48
2022/10/01 05:31:24;;;;;;;4.63;2.20;;;16.30;54.50;;;;;;5039553;28;20451;-49
2022/10/01 05:33:49;;;;;;;2.67;2.20;;;16.40;54.00;;;;;;5040351;28;20529;-48
2022/10/01 05:36:15;;;;;;;3.73;2.87;;;16.50;53.50;;;;;;5036372;28;20514;-48
2022/10/01 05:38:41;;;;;;;2.80;1.97;;;16.40;54.30;;;;;;5043915;28;20854;-48
2022/10/01 05:41:07;;;;;;;3.00;2.80;;;16.30;53.80;;;;;;5044158;28;20312;-48
2022/10/01 05:43:32;;;;;;;2.63;2.33;;;16.40;53.40;;;;;;5048374;28;20181;-53
2022/10/01 05:46:02;;;;;;;3.20;2.97;;;16.40;53.80;;;;;;5046093;28;20440;-48
2022/10/01 05:48:27;;;;;;;2.90;2.60;;;16.50;53.90;;;;;;5042690;28;20204;-48
2022/10/01 05:50:53;;;;;;;3.13;2.20;;;16.70;53.50;;;;;;5037978;28;20477;-51
2022/10/01 05:53:19;;;;;;;2.70;2.00;;;16.80;53.20;;;;;;5051712;28;20200;-50
2022/10/01 05:55:45;;;;;;;1.83;1.73;;;16.90;52.90;;;;;;5046981;28;20192;-48
2022/10/01 05:58:12;;;;;;;2.43;2.23;;;17.00;52.90;;;;;;5051773;28;20458;-49
2022/10/01 06:00:40;;;;;;;2.23;2.07;;;17.00;52.80;;;;;;5042846;28;21020;-50
2022/10/01 06:03:07;;;;;;;2.27;1.80;;;17.20;52.70;;;;;;5049569;28;20439;-52
2022/10/01 06:05:34;;;;;;;1.67;1.57;;;17.20;51.90;;;;;;5046499;28;20491;-52
2022/10/01 06:08:00;;;;;;;2.00;1.80;;;17.10;51.20;;;;;;5040590;28;20798;-51
2022/10/01 06:10:29;;;;;;;5.40;1.63;;;17.10;51.00;;;;;;5047927;28;20449;-49
2022/10/01 06:13:01;;;;;;;1.80;1.70;;;17.00;51.40;;;;;;5046406;28;20443;-49
2022/10/01 06:15:28;;;;;;;1.73;1.63;;;16.90;51.40;;;;;;5049115;28;20459;-50
2022/10/01 06:17:54;;;;;;;2.00;1.63;;;16.80;51.90;;;;;;5050868;28;20473;-50
2022/10/01 06:20:19;;;;;;;1.73;1.63;;;16.90;52.20;;;;;;5038898;28;20442;-49
2022/10/01 06:22:54;;;;;;;3.30;3.00;;;16.90;52.20;;;;;;5044732;28;20193;-49
2022/10/01 06:25:20;;;;;;;3.17;1.63;;;16.80;51.80;;;;;;5049967;28;20223;-51
2022/10/01 06:27:55;;;;;;;1.77;1.67;;;16.70;52.50;;;;;;5051290;28;20442;-50
2022/10/01 06:30:20;;;;;;;1.80;1.70;;;16.80;52.90;;;;;;5051754;28;20564;-51
2022/10/01 06:32:46;;;;;;;1.70;1.60;;;16.70;53.50;;;;;;5044884;28;20592;-49
2022/10/01 06:35:12;;;;;;;2.60;1.60;;;16.50;54.60;;;;;;5041526;28;20708;-49
2022/10/01 06:37:37;;;;;;;1.80;1.70;;;16.30;55.40;;;;;;5042886;28;20250;-49
2022/10/01 06:40:04;;;;;;;3.60;1.73;;;16.40;55.70;;;;;;5047138;28;21230;-48
2022/10/01 06:42:30;;;;;;;2.10;1.90;;;16.50;55.40;;;;;;5046651;28;20567;-51
2022/10/01 06:44:55;;;;;;;2.67;1.70;;;16.50;55.80;;;;;;5050600;28;20569;-49
2022/10/01 06:47:21;;;;;;;4.70;2.70;;;16.50;56.30;;;;;;5038631;28;20189;-50
2022/10/01 06:49:47;;;;;;;4.60;1.80;;;16.30;56.40;;;;;;5038917;28;20270;-50
2022/10/01 06:54:58;;;;;;;2.97;1.83;;;15.70;57.00;;;;;;5049688;28;20208;-52
2022/10/01 06:57:24;;;;;;;4.20;2.10;;;15.50;58.60;;;;;;5045959;28;20497;-52
2022/10/01 06:59:50;;;;;;;2.10;2.00;;;15.70;58.30;;;;;;5040775;28;20988;-53
2022/10/01 07:02:27;;;;;;;3.93;2.20;;;15.90;57.80;;;;;;5047715;28;20652;-51
2022/10/01 07:04:57;;;;;;;2.93;2.40;;;16.10;57.40;;;;;;5046674;28;20580;-52
2022/10/01 07:07:24;;;;;;;2.37;2.17;;;16.30;57.20;;;;;;5044723;28;21150;-52
2022/10/01 07:09:50;;;;;;;2.47;2.27;;;16.20;57.40;;;;;;5047672;28;22311;-52
2022/10/01 07:12:15;;;;;;;2.30;1.93;;;16.30;57.00;;;;;;5050029;28;20542;-52
2022/10/01 07:14:41;;;;;;;1.93;1.80;;;16.50;56.90;;;;;;5052222;28;20659;-52
2022/10/01 07:17:07;;;;;;;2.77;2.47;;;16.60;56.70;;;;;;5052570;28;20562;-49
2022/10/01 07:19:32;;;;;;;2.60;2.40;;;16.70;56.50;;;;;;5052392;28;20619;-51
2022/10/01 07:21:58;;;;;;;5.60;2.63;;;16.80;56.10;;;;;;5052016;28;20192;-51
2022/10/01 07:24:23;;;;;;;1.90;1.80;;;16.80;55.90;;;;;;5052786;28;20225;-51
2022/10/01 07:26:49;;;;;;;2.27;2.00;;;16.70;56.60;;;;;;5052233;28;20227;-52
2022/10/01 07:29:15;;;;;;;3.20;2.43;;;16.80;56.70;;;;;;5049733;28;20263;-49
2022/10/01 07:31:41;;;;;;;3.87;2.07;;;16.60;56.20;;;;;;5059872;28;20423;-51
2022/10/01 07:34:07;;;;;;;2.73;2.40;;;16.70;56.50;;;;;;5032687;28;20487;-52
2022/10/01 07:36:32;;;;;;;4.50;2.80;;;16.80;57.00;;;;;;5034406;28;20185;-52
2022/10/01 07:38:59;;;;;;;3.63;2.60;;;16.90;57.10;;;;;;5040824;28;20209;-49
2022/10/01 07:41:25;;;;;;;2.37;2.17;;;17.00;57.30;;;;;;5050849;28;20192;-52
2022/10/01 07:43:50;;;;;;;2.77;2.57;;;17.00;56.90;;;;;;5050366;28;20962;-52
2022/10/01 07:46:16;;;;;;;3.20;2.57;;;17.10;56.90;;;;;;5033179;28;20194;-51
2022/10/01 07:48:42;;;;;;;4.43;3.27;;;17.10;57.40;;;;;;5032370;28;20222;-48
2022/10/01 07:51:08;;;;;;;6.20;2.50;;;17.10;57.00;;;;;;5031634;28;20255;-52
2022/10/01 07:53:33;;;;;;;5.57;4.23;;;17.00;56.50;;;;;;5032855;28;20812;-52
2022/10/01 07:56:00;;;;;;;3.20;2.23;;;16.50;58.00;;;;;;5031573;28;20216;-49
2022/10/01 07:58:26;;;;;;;2.23;1.77;;;16.60;58.30;;;;;;5032237;28;20212;-49
2022/10/01 08:00:57;;;;;;;3.33;2.47;;;16.80;58.00;;;;;;5030696;28;20421;-51
2022/10/01 08:03:25;;;;;;;5.60;2.60;;;16.80;58.60;;;;;;5032294;28;20208;-49
2022/10/01 08:05:52;;;;;;;2.27;2.17;;;16.90;58.30;;;;;;5040049;28;20869;-49
2022/10/01 08:08:18;;;;;;;3.13;2.33;;;16.90;58.30;;;;;;5032243;28;20942;-49
2022/10/01 08:10:43;;;;;;;2.80;1.83;;;17.10;57.80;;;;;;5031116;28;20468;-48
2022/10/01 08:13:15;;;;;;;2.50;2.30;;;17.20;57.80;;;;;;5049185;28;20193;-49
2022/10/01 08:15:46;;;;;;;2.67;2.47;;;17.00;57.80;;;;;;5049698;28;20197;-49
2022/10/01 08:18:13;;;;;;;3.60;2.10;;;17.10;57.60;;;;;;5037427;28;20432;-51
2022/10/01 08:20:39;;;;;;;2.40;2.20;;;17.10;58.00;;;;;;5031013;28;20963;-49
2022/10/01 08:23:06;;;;;;;3.30;2.70;;;17.10;58.40;;;;;;5030249;28;20428;-48
2022/10/01 08:25:32;;;;;;;3.80;2.57;;;17.10;58.50;;;;;;5033726;28;20478;-49
2022/10/01 08:28:01;;;;;;;3.50;3.20;;;17.10;59.70;;;;;;5051282;28;20878;-48
2022/10/01 08:30:28;;;;;;;3.40;3.10;;;17.10;59.10;;;;;;5057327;28;20508;-48
2022/10/01 08:32:54;;;;;;;4.53;2.57;;;17.20;58.90;;;;;;5040567;28;20427;-48
2022/10/01 08:35:21;;;;;;;2.90;2.70;;;17.00;58.00;;;;;;5031529;28;20440;-48
2022/10/01 08:37:46;;;;;;;3.40;2.67;;;16.70;58.60;;;;;;5041676;28;20423;-48
2022/10/01 08:40:12;;;;;;;2.50;2.30;;;16.90;58.90;;;;;;5035548;28;20525;-48
2022/10/01 08:42:46;;;;;;;2.83;2.47;;;17.10;58.80;;;;;;5046193;28;20246;-48
2022/10/01 08:45:19;;;;;;;2.83;2.63;;;17.10;59.00;;;;;;5040876;28;20268;-48
2022/10/01 08:48:14;;;;;;;4.00;3.70;;;17.30;58.90;;;;;;5050992;28;20438;-48
2022/10/01 08:50:53;;;;;;;2.00;1.90;;;17.30;58.50;;;;;;5011590;28;20565;-48
2022/10/01 08:53:39;;;;;;;5.03;2.90;;;16.90;59.30;;;;;;5049749;28;20920;-50
2022/10/01 08:56:11;;;;;;;3.50;3.20;;;16.80;60.00;;;;;;5050806;28;20419;-49
2022/10/01 08:58:47;;;;;;;2.80;2.40;;;16.80;59.70;;;;;;5051424;28;20815;-48
2022/10/01 09:01:13;;;;;;;3.30;3.00;;;16.60;59.90;;;;;;5049962;28;20845;-49
2022/10/01 09:03:39;;;;;;;2.90;2.70;;;16.60;60.20;;;;;;5049456;28;20439;-48
2022/10/01 09:06:04;;;;;;;3.70;3.13;;;16.90;60.00;;;;;;5039766;28;20195;-48
2022/10/01 09:08:55;;;;;;;3.00;2.80;;;17.00;59.60;;;;;;5051212;28;20435;-48
2022/10/01 09:11:32;;;;;;;3.93;2.53;;;17.20;60.00;;;;;;5049763;28;20196;-49
2022/10/01 09:14:12;;;;;;;3.27;3.00;;;17.30;59.60;;;;;;5049415;28;20510;-48
2022/10/01 09:16:57;;;;;;;2.90;2.70;;;17.40;59.40;;;;;;5036352;28;20455;-48
2022/10/01 09:19:55;;;;;;;3.23;3.03;;;17.50;59.40;;;;;;5034632;28;20440;-48
2022/10/01 09:22:35;;;;;;;5.70;3.37;;;17.60;59.10;;;;;;5039627;28;20554;-50
2022/10/01 09:25:20;;;;;;;3.73;3.43;;;17.70;59.00;;;;;;5043262;28;20501;-49
2022/10/01 09:27:46;;;;;;;3.30;2.63;;;17.80;58.90;;;;;;5046781;28;20455;-48
2022/10/01 09:30:20;;;;;;;4.90;2.70;;;17.90;58.50;;;;;;5050725;28;20472;-49
2022/10/01 09:32:58;;;;;;;10.23;2.30;;;17.90;58.50;;;;;;5042015;28;20474;-48
2022/10/01 09:35:40;;;;;;;2.70;2.50;;;17.90;58.70;;;;;;5038030;28;20546;-48
2022/10/01 09:38:30;;;;;;;3.17;2.43;;;17.70;58.70;;;;;;5045437;28;20473;-49
2022/10/01 09:40:57;;;;;;;5.63;5.17;;;17.50;59.60;;;;;;5040457;28;20435;-49
2022/10/01 09:43:26;;;;;;;5.93;4.13;;;17.40;60.90;;;;;;5038435;28;20456;-50
2022/10/01 09:45:52;;;;;;;2.73;2.53;;;17.50;61.10;;;;;;5041155;28;20477;-48
2022/10/01 09:48:39;;;;;;;4.20;3.43;;;17.40;60.10;;;;;;5045950;28;20440;-48
2022/10/01 09:51:16;;;;;;;3.43;2.20;;;17.40;60.50;;;;;;5037166;28;20368;-48
2022/10/01 09:53:50;;;;;;;2.60;2.40;;;17.20;59.50;;;;;;5044452;28;20533;-49
2022/10/01 09:56:48;;;;;;;2.33;2.13;;;17.30;61.00;;;;;;5045879;28;20530;-48
2022/10/01 09:59:25;;;;;;;2.57;2.37;;;17.40;61.00;;;;;;4998704;28;20471;-48
2022/10/01 10:01:57;;;;;;;2.50;2.30;;;17.40;61.20;;;;;;5045993;28;20455;-48
2022/10/01 10:04:24;;;;;;;3.97;2.63;;;17.50;61.20;;;;;;5045733;28;20832;-50
2022/10/01 10:06:58;;;;;;;4.83;2.00;;;17.50;61.30;;;;;;5046258;28;20435;-48
2022/10/01 10:09:31;;;;;;;2.73;2.07;;;17.20;61.30;;;;;;5039369;28;20451;-48
2022/10/01 10:11:58;;;;;;;4.00;2.70;;;17.20;62.30;;;;;;5040939;28;20550;-48
2022/10/01 10:14:33;;;;;;;2.80;2.50;;;17.00;62.60;;;;;;5043871;28;20443;-53
2022/10/01 10:17:11;;;;;;;3.70;3.00;;;17.10;63.10;;;;;;5036290;28;20517;-53
2022/10/01 10:19:38;;;;;;;3.40;2.40;;;17.30;63.00;;;;;;5041850;28;20830;-52
2022/10/01 10:22:22;;;;;;;1.90;1.70;;;17.40;62.50;;;;;;5036305;28;20537;-52
2022/10/01 10:24:47;;;;;;;5.60;2.63;;;17.60;62.60;;;;;;5041627;28;20478;-51
2022/10/01 10:27:21;;;;;;;5.17;2.40;;;17.60;62.40;;;;;;5050260;28;20442;-52
2022/10/01 10:29:47;;;;;;;2.60;1.83;;;17.80;62.50;;;;;;5044639;28;20236;-53
2022/10/01 10:32:25;;;;;;;4.30;1.70;;;17.90;61.90;;;;;;5042210;28;20450;-51
2022/10/01 10:34:55;;;;;;;2.40;2.20;;;18.00;61.20;;;;;;5038683;28;20438;-50
2022/10/01 10:37:35;;;;;;;2.83;1.77;;;18.00;60.80;;;;;;5049692;28;20458;-49
2022/10/01 10:40:01;;;;;;;5.30;2.40;;;18.00;61.20;;;;;;5048424;28;20442;-52
2022/10/01 10:42:27;;;;;;;1.70;1.60;;;18.00;61.10;;;;;;5046051;28;20450;-48
2022/10/01 10:44:59;;;;;;;4.13;2.27;;;18.00;61.30;;;;;;5042640;28;20972;-51
2022/10/01 10:47:27;;;;;;;4.50;2.80;;;17.80;61.80;;;;;;5044437;28;20450;-50
2022/10/01 10:50:02;;;;;;;4.40;3.73;;;17.40;62.60;;;;;;5045563;28;20833;-48
2022/10/01 10:52:35;;;;;;;8.00;3.93;;;17.40;64.10;;;;;;5049343;28;20933;-49
2022/10/01 10:55:21;;;;;;;3.20;2.50;;;17.40;64.00;;;;;;5052754;28;20453;-49
2022/10/01 10:57:47;;;;;;;5.07;2.53;;;17.40;64.30;;;;;;5038228;28;20455;-48
2022/10/01 11:00:19;;;;;;;1.80;1.70;;;17.60;63.70;;;;;;5039392;28;20463;-51
2022/10/01 11:03:03;;;;;;;2.40;1.70;;;17.40;63.90;;;;;;5042752;28;20476;-48
2022/10/01 11:05:39;;;;;;;2.03;1.80;;;17.40;64.20;;;;;;5048140;28;20544;-49
2022/10/01 11:08:07;;;;;;;2.13;1.60;;;17.40;64.40;;;;;;5052538;28;20450;-48
2022/10/01 11:10:47;;;;;;;1.80;1.30;;;17.20;65.70;;;;;;5047692;28;20447;-51
2022/10/01 11:13:16;;;;;;;1.23;1.13;;;17.00;65.80;;;;;;5050226;28;20451;-48
2022/10/01 11:15:54;;;;;;;2.30;1.50;;;16.80;66.40;;;;;;5048547;28;20451;-50
2022/10/01 11:18:38;;;;;;;0.90;0.90;;;16.80;67.10;;;;;;5030773;28;20476;-48
2022/10/01 11:21:35;;;;;;;1.17;1.07;;;16.70;67.10;;;;;;5047517;28;20504;-48
2022/10/01 11:24:30;;;;;;;1.87;1.10;;;16.80;67.80;;;;;;5049323;28;20628;-51
2022/10/01 11:27:15;;;;;;;1.40;1.30;;;17.00;67.70;;;;;;5050745;28;20513;-52
2022/10/01 11:30:06;;;;;;;1.70;1.33;;;17.10;67.30;;;;;;5051605;28;20475;-48
2022/10/01 11:32:44;;;;;;;1.40;1.30;;;17.10;67.30;;;;;;5036716;28;20519;-48
2022/10/01 11:35:29;;;;;;;1.43;1.33;;;17.00;67.20;;;;;;5045206;28;20451;-48
2022/10/01 11:38:27;;;;;;;2.33;1.30;;;16.70;67.20;;;;;;5043570;28;20448;-52
2022/10/01 11:41:34;;;;;;;1.57;1.30;;;16.60;68.10;;;;;;5042532;28;20442;-52
2022/10/01 11:44:35;;;;;;;1.60;1.30;;;16.60;68.30;;;;;;5045593;28;20583;-49
2022/10/01 11:47:03;;;;;;;1.83;1.73;;;16.80;68.00;;;;;;5045187;28;20870;-48
2022/10/01 11:49:41;;;;;;;2.43;2.20;;;16.80;68.10;;;;;;5048895;28;20493;-48
2022/10/01 11:52:23;;;;;;;3.10;2.10;;;17.00;67.60;;;;;;5046279;28;20473;-50
2022/10/01 12:01:10;;;;;;;1.37;1.27;;;16.80;68.10;;;;;;5046301;28;20485;-48
2022/10/01 12:04:10;;;;;;;1.63;1.53;;;16.70;67.70;;;;;;5048650;28;20454;-46
2022/10/01 12:06:54;;;;;;;1.97;1.40;;;16.40;68.80;;;;;;5015998;28;20517;-47
2022/10/01 12:09:31;;;;;;;4.33;1.40;;;16.40;69.30;;;;;;5042752;28;20981;-48
2022/10/01 12:12:09;;;;;;;1.80;1.10;;;16.30;69.40;;;;;;5040845;28;20534;-48
2022/10/01 12:14:39;;;;;;;3.87;1.37;;;16.40;69.80;;;;;;5039612;28;20531;-46
2022/10/01 12:17:16;;;;;;;1.60;1.50;;;16.60;68.80;;;;;;5037802;28;20443;-47
2022/10/01 12:19:49;;;;;;;1.20;1.10;;;16.70;68.70;;;;;;5037870;28;20475;-47
2022/10/01 12:22:22;;;;;;;0.80;0.80;;;16.60;68.90;;;;;;5036639;28;20451;-48
2022/10/01 12:24:47;;;;;;;1.30;1.10;;;16.60;68.20;;;;;;5044737;28;20898;-47
2022/10/01 12:27:29;;;;;;;1.23;1.13;;;16.80;67.90;;;;;;5039172;28;20516;-50
2022/10/01 12:30:23;;;;;;;1.60;1.50;;;16.90;67.90;;;;;;5045975;28;20227;-47
2022/10/01 12:33:07;;;;;;;1.40;1.30;;;16.70;67.60;;;;;;5042004;28;20474;-47
2022/10/01 12:35:46;;;;;;;1.30;1.20;;;16.80;68.30;;;;;;5047092;28;20451;-48
2022/10/01 12:38:40;;;;;;;1.47;1.37;;;17.00;67.70;;;;;;5045618;28;20514;-48
2022/10/01 12:41:14;;;;;;;2.73;2.10;;;17.10;67.50;;;;;;5043069;28;21930;-47
2022/10/01 12:43:48;;;;;;;2.40;2.20;;;17.10;67.70;;;;;;5039468;28;20505;-46
2022/10/01 12:46:36;;;;;;;2.90;1.30;;;17.20;67.40;;;;;;5040420;28;20448;-46
2022/10/01 12:49:10;;;;;;;1.27;1.17;;;17.20;67.10;;;;;;5043884;28;20443;-46
2022/10/01 12:51:59;;;;;;;1.30;1.20;;;17.20;66.90;;;;;;5043180;28;20447;-49
2022/10/01 12:54:44;;;;;;;1.30;1.20;;;17.00;67.10;;;;;;5049843;28;20439;-48
2022/10/01 12:57:19;;;;;;;1.07;0.90;;;17.10;67.80;;;;;;5048249;28;20962;-46
2022/10/01 13:00:15;;;;;;;1.70;1.13;;;17.10;67.70;;;;;;5042284;28;20446;-47
2022/10/01 13:02:59;;;;;;;1.77;1.13;;;17.10;67.60;;;;;;5044152;28;20977;-47
2022/10/01 13:05:42;;;;;;;3.50;1.40;;;17.00;67.60;;;;;;5048996;28;20489;-47
2022/10/01 13:08:08;;;;;;;0.93;0.93;;;16.90;67.60;;;;;;5039123;28;20538;-46
2022/10/01 13:10:39;;;;;;;1.30;1.20;;;16.90;68.30;;;;;;5043096;28;20609;-46
2022/10/01 13:13:14;;;;;;;0.80;0.80;;;17.30;67.70;;;;;;5043414;28;20288;-46
2022/10/01 13:15:48;;;;;;;1.30;0.90;;;17.40;67.40;;;;;;5038295;28;20502;-47
2022/10/01 13:18:49;;;;;;;0.77;0.77;;;17.40;67.20;;;;;;5040591;28;20537;-46
2022/10/01 13:21:35;;;;;;;1.10;1.00;;;17.30;67.80;;;;;;5029497;28;20482;-48